Time;durP1;ratioP1;P1;durP2;ratioP2;P2;SDS_P1;SDS_P2;PMS_P1;PMS_P2;Temp;Humidity;BMP_temperature;BMP_pressure;BME280_temperature;BME280_humidity;BME280_pressure;Samples;Min_cycle;Max_cycle;Signal;HPM_P1;HPM_P2
2024/02/17 00:00:03;;;;;;;3.08;1.58;;;8.70;99.90;;;;;;4953469;28;20097;-74
2024/02/17 00:02:29;;;;;;;3.08;1.83;;;8.70;99.90;;;;;;4964797;28;20077;-74
2024/02/17 00:04:55;;;;;;;2.63;1.55;;;8.60;99.90;;;;;;4969834;28;20070;-73
2024/02/17 00:07:20;;;;;;;4.95;2.17;;;8.60;99.90;;;;;;4968207;28;20130;-75
2024/02/17 00:09:46;;;;;;;3.75;2.40;;;8.70;99.90;;;;;;4970415;28;20070;-74
2024/02/17 00:12:12;;;;;;;4.43;2.22;;;8.70;99.90;;;;;;4967993;28;20049;-74
2024/02/17 00:14:38;;;;;;;3.45;1.58;;;8.70;99.90;;;;;;4969168;28;20043;-74
2024/02/17 00:17:05;;;;;;;5.40;1.85;;;8.70;99.90;;;;;;4947026;28;20122;-76
2024/02/17 00:19:31;;;;;;;6.43;2.33;;;8.70;99.90;;;;;;4965170;28;20086;-74
2024/02/17 00:21:57;;;;;;;2.83;1.40;;;8.70;99.90;;;;;;4970012;28;20086;-74
2024/02/17 00:24:23;;;;;;;4.50;2.60;;;8.70;99.90;;;;;;4944791;28;20517;-75
2024/02/17 00:26:49;;;;;;;2.80;1.38;;;8.80;99.90;;;;;;4972491;28;20042;-75
2024/02/17 00:29:18;;;;;;;3.58;2.10;;;8.80;99.90;;;;;;4954398;28;20050;-75
2024/02/17 00:31:46;;;;;;;2.45;1.65;;;8.90;99.90;;;;;;4972630;28;20039;-75
2024/02/17 00:34:15;;;;;;;3.65;2.40;;;8.90;99.90;;;;;;4963500;28;20057;-75
2024/02/17 00:36:41;;;;;;;4.00;2.75;;;8.90;99.90;;;;;;4967968;28;20395;-74
2024/02/17 00:39:09;;;;;;;8.45;2.38;;;9.00;99.90;;;;;;4966853;28;20057;-74
2024/02/17 00:41:38;;;;;;;4.80;2.05;;;9.00;99.90;;;;;;4950315;28;20050;-75
2024/02/17 00:44:04;;;;;;;5.70;2.70;;;9.00;99.90;;;;;;4964625;28;20054;-75
2024/02/17 00:46:30;;;;;;;4.75;2.35;;;9.10;99.90;;;;;;4970039;28;20560;-74
2024/02/17 00:48:56;;;;;;;4.97;3.05;;;9.00;99.90;;;;;;4967307;28;20073;-75
2024/02/17 00:51:23;;;;;;;4.30;2.28;;;9.10;99.90;;;;;;4972934;28;20061;-76
2024/02/17 00:53:49;;;;;;;5.75;3.30;;;9.20;99.90;;;;;;4955619;28;20042;-75
2024/02/17 00:56:15;;;;;;;2.72;1.60;;;9.20;99.90;;;;;;4967515;28;20042;-75
2024/02/17 00:58:41;;;;;;;3.92;1.88;;;9.20;99.90;;;;;;4971182;28;20045;-75
2024/02/17 01:01:09;;;;;;;6.00;2.33;;;9.20;99.90;;;;;;4955825;28;20042;-75
2024/02/17 01:03:35;;;;;;;5.57;2.58;;;9.30;99.90;;;;;;4972871;28;20049;-76
2024/02/17 01:06:03;;;;;;;6.57;2.90;;;9.30;99.90;;;;;;4964304;28;20073;-75
2024/02/17 01:08:30;;;;;;;8.07;2.70;;;9.30;99.90;;;;;;4967824;28;20046;-75
2024/02/17 01:10:56;;;;;;;4.75;2.28;;;9.30;99.90;;;;;;4967396;28;20121;-74
2024/02/17 01:13:22;;;;;;;10.80;1.92;;;9.30;99.90;;;;;;4955383;28;20549;-75
2024/02/17 01:15:48;;;;;;;4.70;2.97;;;9.30;99.90;;;;;;4962453;28;20415;-74
2024/02/17 01:18:13;;;;;;;2.88;2.03;;;9.40;99.90;;;;;;4973316;28;20125;-74
2024/02/17 01:20:39;;;;;;;5.22;3.00;;;9.40;99.90;;;;;;4961232;28;20166;-75
2024/02/17 01:23:05;;;;;;;4.90;2.83;;;9.40;99.90;;;;;;4965881;28;20118;-74
2024/02/17 01:25:30;;;;;;;6.22;2.08;;;9.50;99.90;;;;;;4965079;28;20084;-74
2024/02/17 01:27:56;;;;;;;3.97;2.65;;;9.50;99.90;;;;;;4965884;28;20046;-75
2024/02/17 01:30:22;;;;;;;4.90;1.65;;;9.50;99.90;;;;;;4967391;28;20050;-75
2024/02/17 01:32:47;;;;;;;4.60;2.83;;;9.50;99.90;;;;;;4962724;28;20423;-76
2024/02/17 01:35:13;;;;;;;5.40;2.70;;;9.50;99.90;;;;;;4950621;28;20579;-75
2024/02/17 01:37:39;;;;;;;7.38;3.00;;;9.50;99.90;;;;;;4964988;28;20134;-76
2024/02/17 01:40:06;;;;;;;3.47;1.98;;;9.60;99.90;;;;;;4970445;28;20077;-74
2024/02/17 01:42:31;;;;;;;5.18;2.67;;;9.60;99.90;;;;;;4968253;28;20137;-74
2024/02/17 01:44:57;;;;;;;5.70;2.83;;;9.60;99.90;;;;;;4968006;28;20141;-75
2024/02/17 01:47:23;;;;;;;4.57;2.17;;;9.60;99.90;;;;;;4965840;28;20050;-75
2024/02/17 01:49:49;;;;;;;3.42;2.05;;;9.60;99.90;;;;;;4962933;28;20043;-73
2024/02/17 01:52:16;;;;;;;4.88;2.78;;;9.60;99.90;;;;;;4966374;28;20125;-74
2024/02/17 01:54:43;;;;;;;2.50;1.75;;;9.60;99.90;;;;;;4968201;28;20108;-75
2024/02/17 01:57:10;;;;;;;2.42;1.70;;;9.60;99.90;;;;;;4961412;28;20080;-74
2024/02/17 01:59:37;;;;;;;3.47;1.70;;;9.60;99.90;;;;;;4956823;28;20046;-75
2024/02/17 02:02:04;;;;;;;3.92;2.30;;;9.60;99.90;;;;;;4963554;28;20039;-74
2024/02/17 02:04:30;;;;;;;4.55;2.70;;;9.60;99.90;;;;;;4971747;28;20081;-75
2024/02/17 02:06:55;;;;;;;3.70;2.42;;;9.60;99.90;;;;;;4963571;28;20505;-75
2024/02/17 02:09:25;;;;;;;7.05;3.25;;;9.60;99.90;;;;;;4963730;28;20131;-75
2024/02/17 02:11:51;;;;;;;6.38;2.00;;;9.50;99.90;;;;;;4963691;28;20045;-74
2024/02/17 02:14:18;;;;;;;6.65;1.65;;;9.50;99.90;;;;;;4967266;28;20042;-74
2024/02/17 02:16:45;;;;;;;6.93;2.13;;;9.50;99.90;;;;;;4966041;28;20114;-74
2024/02/17 02:19:11;;;;;;;3.45;2.03;;;9.50;99.90;;;;;;4971641;28;20125;-74
2024/02/17 02:21:41;;;;;;;5.45;1.80;;;9.50;99.90;;;;;;4964397;28;20093;-74
2024/02/17 02:24:07;;;;;;;5.68;1.98;;;9.50;99.90;;;;;;4970107;28;20030;-74
2024/02/17 02:26:33;;;;;;;4.93;2.25;;;9.50;99.90;;;;;;4970979;28;20042;-74
2024/02/17 02:28:59;;;;;;;3.63;1.92;;;9.50;99.90;;;;;;4963786;28;20046;-74
2024/02/17 02:31:25;;;;;;;4.50;2.05;;;9.50;99.90;;;;;;4966725;28;20625;-74
2024/02/17 02:33:52;;;;;;;5.72;1.98;;;9.50;99.90;;;;;;4966232;28;20031;-74
2024/02/17 02:36:20;;;;;;;4.80;1.80;;;9.50;99.90;;;;;;4969142;28;20057;-74
2024/02/17 02:38:46;;;;;;;6.28;2.13;;;9.50;99.90;;;;;;4966863;28;20093;-74
2024/02/17 02:41:12;;;;;;;5.75;1.63;;;9.50;99.90;;;;;;4973675;28;20050;-74
2024/02/17 02:43:38;;;;;;;4.22;1.98;;;9.50;99.90;;;;;;4970805;28;20054;-75
2024/02/17 02:46:04;;;;;;;5.25;2.53;;;9.60;99.90;;;;;;4970993;28;20041;-75
2024/02/17 02:48:30;;;;;;;5.00;2.17;;;9.60;99.90;;;;;;4966692;28;20053;-74
2024/02/17 02:50:55;;;;;;;4.05;2.58;;;9.60;99.90;;;;;;4954933;28;20492;-74
2024/02/17 02:53:21;;;;;;;6.50;2.85;;;9.60;99.90;;;;;;4947771;28;20039;-74
2024/02/17 02:55:47;;;;;;;4.50;2.35;;;9.60;99.90;;;;;;4952634;28;20481;-74
2024/02/17 02:58:12;;;;;;;4.05;1.85;;;9.70;99.90;;;;;;4972609;28;20084;-74
2024/02/17 03:00:38;;;;;;;4.32;1.83;;;9.70;99.90;;;;;;4959077;28;20038;-75
2024/02/17 03:03:04;;;;;;;4.10;2.47;;;9.70;99.90;;;;;;4969153;28;20080;-75
2024/02/17 03:05:31;;;;;;;4.13;2.03;;;9.70;99.90;;;;;;4970951;28;20552;-75
2024/02/17 03:07:56;;;;;;;5.20;2.67;;;9.70;99.90;;;;;;4969262;28;20042;-74
2024/02/17 03:10:22;;;;;;;2.88;1.40;;;9.70;99.90;;;;;;4968388;28;20543;-74
2024/02/17 03:12:48;;;;;;;7.38;2.72;;;9.70;99.90;;;;;;4971804;28;20043;-75
2024/02/17 03:15:14;;;;;;;4.72;2.05;;;9.70;99.90;;;;;;4955227;28;20034;-74
2024/02/17 03:17:40;;;;;;;2.97;1.95;;;9.80;99.90;;;;;;4972205;28;20053;-74
2024/02/17 03:20:06;;;;;;;3.05;1.63;;;9.70;99.90;;;;;;4949943;28;20042;-74
2024/02/17 03:22:35;;;;;;;3.78;1.73;;;9.80;99.90;;;;;;4971591;28;20072;-75
2024/02/17 03:25:01;;;;;;;5.35;1.75;;;9.80;99.90;;;;;;4967228;28;20043;-75
2024/02/17 03:27:27;;;;;;;6.50;2.28;;;9.70;99.90;;;;;;4972603;28;20042;-75
2024/02/17 03:29:53;;;;;;;2.72;1.65;;;9.70;99.90;;;;;;4968307;28;20038;-74
2024/02/17 03:32:19;;;;;;;4.20;2.10;;;9.70;99.90;;;;;;4969079;28;20141;-75
2024/02/17 03:34:45;;;;;;;5.15;1.95;;;9.70;99.90;;;;;;4964201;28;20043;-74
2024/02/17 03:37:10;;;;;;;4.47;2.00;;;9.70;99.90;;;;;;4970684;28;20096;-75
2024/02/17 03:39:37;;;;;;;3.15;1.58;;;9.70;99.90;;;;;;4963637;28;20039;-75
2024/02/17 03:42:03;;;;;;;4.35;1.73;;;9.80;99.90;;;;;;4958189;28;20451;-75
2024/02/17 03:44:30;;;;;;;5.25;2.40;;;9.70;99.90;;;;;;4965038;28;20046;-75
2024/02/17 03:46:55;;;;;;;6.22;2.25;;;9.70;99.90;;;;;;4964142;28;20039;-75
2024/02/17 03:49:22;;;;;;;4.47;2.05;;;9.70;99.90;;;;;;4965337;28;20077;-76
2024/02/17 03:51:48;;;;;;;4.15;1.98;;;9.70;99.90;;;;;;4966315;28;20050;-75
2024/02/17 03:54:14;;;;;;;2.67;1.75;;;9.70;99.90;;;;;;4962661;28;20047;-75
2024/02/17 03:56:40;;;;;;;3.17;1.80;;;9.70;99.90;;;;;;4974116;28;20133;-75
2024/02/17 03:59:05;;;;;;;4.25;2.10;;;9.70;99.90;;;;;;4964093;28;20042;-75
2024/02/17 04:01:38;;;;;;;15.80;2.00;;;9.70;99.90;;;;;;4951840;28;20042;-76
2024/02/17 04:04:04;;;;;;;7.38;2.53;;;9.60;99.90;;;;;;4969627;28;20089;-74
2024/02/17 04:06:31;;;;;;;3.45;1.42;;;9.60;99.90;;;;;;4965097;28;20458;-74
2024/02/17 04:09:00;;;;;;;4.13;1.77;;;9.60;99.90;;;;;;4973271;28;20142;-74
2024/02/17 04:11:28;;;;;;;4.72;1.85;;;9.60;99.90;;;;;;4965355;28;20069;-74
2024/02/17 04:13:57;;;;;;;4.53;1.75;;;9.60;99.90;;;;;;4953608;28;20047;-74
2024/02/17 04:16:23;;;;;;;5.28;1.98;;;9.60;99.90;;;;;;4964142;28;20534;-74
2024/02/17 04:18:49;;;;;;;1.63;1.00;;;9.60;99.90;;;;;;4969118;28;20073;-74
2024/02/17 04:21:15;;;;;;;1.77;1.27;;;9.60;99.90;;;;;;4983850;28;20352;-75
2024/02/17 04:23:43;;;;;;;2.33;1.38;;;9.60;99.90;;;;;;4969655;28;20061;-75
2024/02/17 04:26:09;;;;;;;3.10;1.65;;;9.60;99.90;;;;;;4967532;28;20042;-74
2024/02/17 04:28:36;;;;;;;4.22;1.58;;;9.50;99.90;;;;;;4970017;28;20055;-75
2024/02/17 04:31:05;;;;;;;10.15;2.22;;;9.50;99.90;;;;;;4966501;28;20061;-74
2024/02/17 04:33:31;;;;;;;5.43;1.42;;;9.50;99.90;;;;;;4969899;28;20092;-75
2024/02/17 04:35:56;;;;;;;3.58;1.92;;;9.50;99.90;;;;;;4962243;28;20046;-75
2024/02/17 04:38:22;;;;;;;2.65;1.60;;;9.40;99.90;;;;;;4969103;28;20648;-75
2024/02/17 04:40:48;;;;;;;9.00;1.98;;;9.40;99.90;;;;;;4967747;28;20043;-76
2024/02/17 04:43:13;;;;;;;5.72;2.10;;;9.40;99.90;;;;;;4964012;28;20054;-73
2024/02/17 04:45:39;;;;;;;7.10;2.10;;;9.40;99.90;;;;;;4969627;28;20050;-74
2024/02/17 04:48:06;;;;;;;4.57;1.88;;;9.40;99.90;;;;;;4944270;28;20035;-75
2024/02/17 04:50:32;;;;;;;3.40;1.17;;;9.30;99.90;;;;;;4959388;28;20042;-75
2024/02/17 04:52:57;;;;;;;1.83;1.17;;;9.30;99.90;;;;;;4942961;28;20056;-75
2024/02/17 04:55:26;;;;;;;3.88;2.10;;;9.30;99.90;;;;;;4967230;28;20165;-75
2024/02/17 04:57:51;;;;;;;3.50;1.52;;;9.30;99.90;;;;;;4964440;28;20042;-75
2024/02/17 05:00:20;;;;;;;6.53;1.30;;;9.30;99.90;;;;;;4950914;28;20520;-74
2024/02/17 05:02:46;;;;;;;3.33;1.48;;;9.20;99.90;;;;;;4966903;28;20046;-74
2024/02/17 05:05:15;;;;;;;4.93;1.38;;;9.30;99.90;;;;;;4970619;28;20133;-75
2024/02/17 05:07:42;;;;;;;2.28;1.17;;;9.20;99.90;;;;;;4964363;28;20050;-75
2024/02/17 05:10:08;;;;;;;1.20;0.77;;;9.20;99.90;;;;;;4967098;28;20045;-75
2024/02/17 05:12:33;;;;;;;2.53;1.08;;;9.20;99.90;;;;;;4966398;28;20038;-74
2024/02/17 05:14:59;;;;;;;3.05;1.50;;;9.10;99.90;;;;;;4969731;28;20037;-74
2024/02/17 05:17:26;;;;;;;5.57;1.92;;;9.10;99.90;;;;;;4961794;28;20073;-74
2024/02/17 05:19:52;;;;;;;1.98;1.10;;;9.10;99.90;;;;;;4970212;28;20502;-75
2024/02/17 05:22:18;;;;;;;2.70;1.70;;;9.10;99.90;;;;;;4969214;28;20053;-74
2024/02/17 05:24:44;;;;;;;4.22;0.98;;;9.00;99.90;;;;;;4965404;28;20121;-75
2024/02/17 05:27:09;;;;;;;1.35;0.98;;;9.00;99.90;;;;;;4967207;28;20134;-75
2024/02/17 05:29:37;;;;;;;8.77;2.05;;;9.00;99.90;;;;;;4971811;28;20394;-77
2024/02/17 05:32:03;;;;;;;6.88;1.73;;;8.90;99.90;;;;;;4968991;28;20135;-75
2024/02/17 05:34:29;;;;;;;2.75;1.17;;;8.90;99.90;;;;;;4960425;28;20121;-76
2024/02/17 05:36:56;;;;;;;1.60;1.10;;;8.90;99.90;;;;;;4977341;28;20044;-74
2024/02/17 05:39:23;;;;;;;1.40;0.95;;;8.80;99.90;;;;;;4961017;28;20117;-75
2024/02/17 05:41:50;;;;;;;2.30;1.25;;;8.80;99.90;;;;;;4971242;28;20518;-74
2024/02/17 05:44:15;;;;;;;2.35;1.52;;;8.80;99.90;;;;;;4968858;28;20053;-74
2024/02/17 05:46:41;;;;;;;6.45;1.55;;;8.80;99.90;;;;;;4970449;28;20144;-74
2024/02/17 05:49:07;;;;;;;2.40;1.40;;;8.80;99.90;;;;;;4964917;28;20125;-75
2024/02/17 05:51:32;;;;;;;2.03;1.10;;;8.80;99.90;;;;;;4970817;28;20593;-74
2024/02/17 05:53:58;;;;;;;1.38;0.93;;;8.80;99.90;;;;;;4964987;28;20034;-75
2024/02/17 05:56:24;;;;;;;1.40;0.80;;;8.70;99.90;;;;;;4969086;28;20073;-75
2024/02/17 05:58:50;;;;;;;1.75;0.90;;;8.80;99.90;;;;;;4966271;28;20070;-75
2024/02/17 06:01:16;;;;;;;1.98;1.15;;;8.70;99.90;;;;;;4971025;28;20490;-74
2024/02/17 06:03:41;;;;;;;1.95;1.25;;;8.80;99.90;;;;;;4960339;28;20495;-74
2024/02/17 06:06:07;;;;;;;2.60;0.60;;;8.70;99.90;;;;;;4965632;28;20177;-74
2024/02/17 06:08:33;;;;;;;4.10;1.20;;;8.70;99.90;;;;;;4958619;28;20537;-74
2024/02/17 06:10:58;;;;;;;1.40;1.00;;;8.70;99.90;;;;;;4966988;28;20046;-74
2024/02/17 06:13:24;;;;;;;5.38;1.00;;;8.70;99.90;;;;;;4954161;28;20051;-73
2024/02/17 06:15:53;;;;;;;1.33;0.75;;;8.70;99.90;;;;;;4961690;28;20096;-74
2024/02/17 06:21:13;;;;;;;1.48;1.02;;;8.70;99.90;;;;;;4963953;28;20046;-73
2024/02/17 06:23:43;;;;;;;1.85;0.80;;;8.70;99.90;;;;;;4964958;28;20046;-74
2024/02/17 06:26:25;;;;;;;0.38;0.35;;;8.70;99.90;;;;;;4963212;28;20038;-74
2024/02/17 06:28:52;;;;;;;5.70;0.73;;;8.70;99.90;;;;;;4966656;28;20547;-74
2024/02/17 06:31:18;;;;;;;0.80;0.45;;;8.70;99.90;;;;;;4961762;28;20046;-74
2024/02/17 06:33:44;;;;;;;2.70;0.65;;;8.60;99.90;;;;;;4974519;28;20043;-74
2024/02/17 06:36:12;;;;;;;0.52;0.30;;;8.70;99.90;;;;;;4948899;28;20130;-74
2024/02/17 06:38:38;;;;;;;1.02;0.65;;;8.60;99.90;;;;;;4970335;28;20584;-74
2024/02/17 06:41:04;;;;;;;1.55;0.55;;;8.70;99.90;;;;;;4969125;28;20113;-74
2024/02/17 06:43:30;;;;;;;0.95;0.68;;;8.60;99.90;;;;;;4968664;28;20514;-74
2024/02/17 06:45:58;;;;;;;0.52;0.40;;;8.60;99.90;;;;;;4964469;28;20502;-74
2024/02/17 06:48:25;;;;;;;1.77;0.45;;;8.60;99.90;;;;;;4969401;28;20370;-75
2024/02/17 06:50:52;;;;;;;6.03;0.77;;;8.60;99.90;;;;;;4949719;28;20039;-75
2024/02/17 06:53:18;;;;;;;4.78;0.85;;;8.60;99.90;;;;;;4964919;28;20054;-75
2024/02/17 06:55:44;;;;;;;1.77;0.65;;;8.60;99.90;;;;;;4961147;28;20383;-74
2024/02/17 06:58:09;;;;;;;3.83;0.45;;;8.60;99.90;;;;;;4967392;28;20043;-75
2024/02/17 07:00:36;;;;;;;5.95;0.80;;;8.60;99.90;;;;;;4946026;28;20461;-75
2024/02/17 07:03:04;;;;;;;0.63;0.30;;;8.60;99.90;;;;;;4963548;28;20102;-74
2024/02/17 07:05:33;;;;;;;0.75;0.55;;;8.60;99.90;;;;;;4962675;28;20114;-75
2024/02/17 07:07:59;;;;;;;0.77;0.52;;;8.60;99.90;;;;;;4963155;28;20422;-75
2024/02/17 07:10:25;;;;;;;0.80;0.50;;;8.60;99.90;;;;;;4953796;28;20047;-74
2024/02/17 07:12:51;;;;;;;0.50;0.30;;;8.60;99.90;;;;;;4954822;28;20049;-75
2024/02/17 07:15:16;;;;;;;1.98;0.30;;;8.60;99.90;;;;;;4956802;28;20041;-75
2024/02/17 07:17:42;;;;;;;0.68;0.35;;;8.60;99.90;;;;;;4957911;28;20073;-74
2024/02/17 07:20:09;;;;;;;0.82;0.38;;;8.60;99.90;;;;;;4972740;28;20702;-75
2024/02/17 07:22:35;;;;;;;0.98;0.35;;;8.60;99.90;;;;;;4948408;28;20090;-74
2024/02/17 07:25:01;;;;;;;3.03;0.50;;;8.60;99.90;;;;;;4965227;28;20051;-74
2024/02/17 07:27:27;;;;;;;0.38;0.30;;;8.60;99.90;;;;;;4952254;28;20042;-74
2024/02/17 07:29:53;;;;;;;0.57;0.28;;;8.70;99.90;;;;;;4967362;28;20066;-74
2024/02/17 07:32:23;;;;;;;1.45;0.45;;;8.70;99.90;;;;;;4965230;28;20042;-75
2024/02/17 07:34:53;;;;;;;2.67;0.47;;;8.70;99.90;;;;;;4969209;28;20053;-74
2024/02/17 07:37:19;;;;;;;2.53;0.75;;;8.70;99.90;;;;;;4963593;28;20081;-74
2024/02/17 07:39:45;;;;;;;0.68;0.45;;;8.70;99.90;;;;;;4970290;28;20050;-74
2024/02/17 07:42:11;;;;;;;0.40;0.28;;;8.70;99.90;;;;;;4967968;28;20066;-74
2024/02/17 07:44:37;;;;;;;0.52;0.30;;;8.70;99.90;;;;;;4948050;28;20051;-74
2024/02/17 07:47:03;;;;;;;34.20;22.13;;;8.60;99.90;;;;;;4963659;28;20078;-74
2024/02/17 07:49:31;;;;;;;2.08;0.73;;;8.70;99.90;;;;;;4956283;28;20037;-75
2024/02/17 07:51:56;;;;;;;3.20;2.58;;;8.70;99.90;;;;;;4962165;28;20399;-75
2024/02/17 07:54:22;;;;;;;0.93;0.40;;;8.70;99.90;;;;;;4963714;28;20062;-75
2024/02/17 07:56:48;;;;;;;0.47;0.47;;;8.80;99.90;;;;;;4962772;28;20145;-75
2024/02/17 07:59:14;;;;;;;0.30;0.30;;;8.70;99.90;;;;;;4965890;28;20050;-75
2024/02/17 08:01:39;;;;;;;0.30;0.20;;;8.70;99.90;;;;;;4966932;28;20041;-75
2024/02/17 08:04:05;;;;;;;0.20;0.20;;;8.70;99.90;;;;;;4967120;28;20050;-74
2024/02/17 08:06:31;;;;;;;2.55;0.20;;;8.70;99.90;;;;;;4952995;28;20541;-75
2024/02/17 08:08:57;;;;;;;0.30;0.20;;;8.70;99.90;;;;;;4958408;28;20047;-74
2024/02/17 08:11:22;;;;;;;0.20;0.20;;;8.70;99.90;;;;;;4971350;28;20407;-75
2024/02/17 08:13:48;;;;;;;0.30;0.13;;;8.70;99.90;;;;;;4963644;28;20695;-75
2024/02/17 08:16:14;;;;;;;2.17;0.28;;;8.80;99.90;;;;;;4966385;28;20049;-74
2024/02/17 08:18:42;;;;;;;2.90;0.45;;;8.80;99.90;;;;;;4963985;28;20054;-74
2024/02/17 08:21:09;;;;;;;1.45;0.20;;;8.80;99.90;;;;;;4947946;28;20034;-76
2024/02/17 08:23:35;;;;;;;0.25;0.25;;;8.90;99.90;;;;;;4970294;28;20042;-74
2024/02/17 08:26:01;;;;;;;0.40;0.20;;;8.90;99.90;;;;;;4966673;28;20042;-75
2024/02/17 08:28:28;;;;;;;2.33;0.35;;;8.90;99.90;;;;;;4974582;28;20101;-75
2024/02/17 08:30:53;;;;;;;0.55;0.30;;;9.00;99.90;;;;;;4970147;28;20030;-75
2024/02/17 08:33:19;;;;;;;1.17;0.17;;;9.00;99.90;;;;;;4967526;28;20047;-74
2024/02/17 08:35:45;;;;;;;0.50;0.40;;;9.00;99.90;;;;;;4965783;28;20490;-75
2024/02/17 08:38:11;;;;;;;1.02;0.40;;;9.00;99.90;;;;;;4971343;28;20125;-75
2024/02/17 08:40:37;;;;;;;0.80;0.17;;;9.10;99.90;;;;;;4970591;28;20511;-75
2024/02/17 08:43:05;;;;;;;0.85;0.28;;;9.10;99.90;;;;;;4976227;28;20435;-75
2024/02/17 08:45:31;;;;;;;0.82;0.32;;;9.10;99.90;;;;;;4964716;28;20047;-75
2024/02/17 08:47:57;;;;;;;0.52;0.43;;;9.20;99.90;;;;;;4972913;28;20053;-75
2024/02/17 08:50:23;;;;;;;0.25;0.15;;;9.20;99.90;;;;;;4968437;28;20046;-74
2024/02/17 08:52:49;;;;;;;1.75;0.20;;;9.20;99.90;;;;;;4971236;28;20039;-76
2024/02/17 08:55:15;;;;;;;0.43;0.10;;;9.20;99.90;;;;;;4963518;28;20057;-76
2024/02/17 08:57:40;;;;;;;1.27;0.40;;;9.20;99.90;;;;;;4968331;28;20078;-76
2024/02/17 09:00:07;;;;;;;0.20;0.20;;;9.30;99.90;;;;;;4950087;28;20085;-75
2024/02/17 09:02:33;;;;;;;0.35;0.20;;;9.30;99.90;;;;;;4955031;28;20039;-75
2024/02/17 09:04:59;;;;;;;0.30;0.20;;;9.30;99.90;;;;;;4961196;28;20039;-75
2024/02/17 09:07:27;;;;;;;0.88;0.20;;;9.30;99.90;;;;;;4953488;28;20054;-76
2024/02/17 09:09:53;;;;;;;2.83;0.25;;;9.30;99.90;;;;;;4965554;28;20494;-75
2024/02/17 09:12:20;;;;;;;3.10;0.60;;;9.30;99.90;;;;;;4968685;28;20069;-75
2024/02/17 09:14:46;;;;;;;0.20;0.20;;;9.30;99.90;;;;;;4966627;28;20043;-75
2024/02/17 09:17:13;;;;;;;0.10;0.10;;;9.20;99.90;;;;;;4970344;28;20038;-74
2024/02/17 09:19:40;;;;;;;0.60;0.30;;;9.10;99.90;;;;;;4950738;28;20085;-75
2024/02/17 09:22:06;;;;;;;0.10;0.10;;;9.10;99.90;;;;;;4966632;28;20081;-75
2024/02/17 09:24:31;;;;;;;0.30;0.20;;;9.10;99.90;;;;;;4953670;28;20074;-75
2024/02/17 09:27:00;;;;;;;0.55;0.20;;;9.10;99.90;;;;;;4967722;28;20105;-74
2024/02/17 09:29:29;;;;;;;2.80;0.30;;;9.10;99.90;;;;;;4968978;28;20109;-74
2024/02/17 09:31:55;;;;;;;0.22;0.17;;;9.20;99.90;;;;;;4953883;28;20034;-75
2024/02/17 09:34:22;;;;;;;0.65;0.30;;;9.20;99.90;;;;;;4969964;28;20089;-74
2024/02/17 09:36:48;;;;;;;0.57;0.30;;;9.30;99.90;;;;;;4961563;28;20035;-75
2024/02/17 09:39:14;;;;;;;1.08;0.20;;;9.40;99.90;;;;;;4966529;28;20125;-74
2024/02/17 09:41:41;;;;;;;0.60;0.30;;;9.40;99.90;;;;;;4959704;28;20122;-73
2024/02/17 09:44:10;;;;;;;0.20;0.20;;;9.40;99.90;;;;;;4962980;28;20601;-74
2024/02/17 09:46:37;;;;;;;0.20;0.20;;;9.50;99.90;;;;;;4960640;28;20521;-74
2024/02/17 09:49:04;;;;;;;0.57;0.17;;;9.70;99.90;;;;;;4968669;28;20043;-74
2024/02/17 09:51:31;;;;;;;0.25;0.10;;;9.90;99.90;;;;;;4970497;28;20094;-74
2024/02/17 09:53:57;;;;;;;2.30;0.75;;;10.00;99.90;;;;;;4970063;28;20617;-74
2024/02/17 09:56:24;;;;;;;0.80;0.40;;;10.30;99.90;;;;;;4969880;28;20038;-74
2024/02/17 09:58:50;;;;;;;0.50;0.30;;;10.20;99.90;;;;;;4964652;28;20046;-74
2024/02/17 10:01:16;;;;;;;0.10;0.10;;;10.10;99.90;;;;;;4967607;28;20046;-75
2024/02/17 10:03:41;;;;;;;2.60;0.73;;;10.00;99.90;;;;;;4965363;28;20133;-74
2024/02/17 10:06:12;;;;;;;1.05;0.77;;;9.90;99.90;;;;;;4967723;28;20144;-74
2024/02/17 10:08:39;;;;;;;1.50;0.17;;;9.90;99.90;;;;;;4965198;28;20414;-74
2024/02/17 10:11:10;;;;;;;0.52;0.22;;;9.80;99.90;;;;;;4966171;28;20515;-73
2024/02/17 10:13:37;;;;;;;0.60;0.38;;;9.80;99.90;;;;;;4967143;28;20114;-73
2024/02/17 10:16:17;;;;;;;5.00;0.47;;;9.80;99.90;;;;;;4970615;28;20091;-75
2024/02/17 10:18:47;;;;;;;0.98;0.20;;;9.90;99.90;;;;;;4983482;28;20039;-74
2024/02/17 10:21:13;;;;;;;0.52;0.10;;;9.90;99.90;;;;;;4969676;28;20348;-74
2024/02/17 10:23:39;;;;;;;0.25;0.20;;;9.90;99.90;;;;;;4943242;28;20037;-74
2024/02/17 10:26:06;;;;;;;0.13;0.10;;;9.90;99.90;;;;;;4965831;28;20047;-75
2024/02/17 10:28:33;;;;;;;1.05;0.20;;;9.80;99.90;;;;;;4964973;28;20034;-74
2024/02/17 10:31:01;;;;;;;0.40;0.20;;;9.80;99.90;;;;;;4968490;28;20653;-74
2024/02/17 10:33:27;;;;;;;0.38;0.20;;;9.70;99.90;;;;;;4946717;28;20042;-74
2024/02/17 10:35:56;;;;;;;0.20;0.10;;;9.70;99.90;;;;;;4969191;28;20048;-73
2024/02/17 10:38:26;;;;;;;0.55;0.22;;;9.90;99.90;;;;;;4965896;28;20058;-74
2024/02/17 10:40:54;;;;;;;0.20;0.10;;;10.10;99.90;;;;;;4971688;28;20053;-75
2024/02/17 10:43:20;;;;;;;6.05;2.13;;;10.40;99.90;;;;;;4965645;28;20066;-75
2024/02/17 10:45:51;;;;;;;0.82;0.47;;;11.10;99.90;;;;;;4969290;28;20050;-74
2024/02/17 10:48:19;;;;;;;0.17;0.17;;;11.90;99.90;;;;;;4961230;28;20085;-75
2024/02/17 10:50:46;;;;;;;0.10;0.10;;;13.00;99.90;;;;;;4950661;28;20046;-74
2024/02/17 10:53:31;;;;;;;0.22;0.10;;;14.60;99.90;;;;;;4958627;28;20050;-75
2024/02/17 10:55:59;;;;;;;0.20;0.00;;;16.10;99.90;;;;;;4969660;28;20481;-75
2024/02/17 10:58:25;;;;;;;0.32;0.13;;;17.30;99.90;;;;;;4964692;28;20458;-75
2024/02/17 11:00:52;;;;;;;0.75;0.20;;;18.10;99.90;;;;;;4970263;28;20034;-75
2024/02/17 11:03:28;;;;;;;1.13;0.10;;;18.30;99.90;;;;;;4965226;28;20462;-75
2024/02/17 11:06:01;;;;;;;0.00;0.00;;;18.10;99.90;;;;;;4955256;28;20050;-75
2024/02/17 11:08:27;;;;;;;0.00;0.00;;;17.30;99.90;;;;;;4962646;28;20034;-75
2024/02/17 11:10:53;;;;;;;0.93;0.10;;;16.40;99.90;;;;;;4964601;28;20038;-75
2024/02/17 11:13:24;;;;;;;4.03;0.20;;;16.70;99.90;;;;;;4967610;28;20046;-75
2024/02/17 11:16:05;;;;;;;0.95;0.20;;;17.70;99.90;;;;;;4966447;28;20085;-76
2024/02/17 11:18:34;;;;;;;0.00;0.00;;;18.60;99.90;;;;;;4969588;28;20046;-76
2024/02/17 11:21:02;;;;;;;0.22;0.10;;;18.80;99.90;;;;;;4969238;28;20372;-77
2024/02/17 11:23:33;;;;;;;0.22;0.10;;;18.70;99.90;;;;;;4967664;28;20113;-74
2024/02/17 11:25:59;;;;;;;0.85;0.10;;;18.70;99.90;;;;;;4957945;28;20042;-75
2024/02/17 11:28:26;;;;;;;1.20;0.20;;;18.80;99.90;;;;;;4975494;28;20533;-76
2024/02/17 11:30:58;;;;;;;1.42;0.10;;;18.90;99.90;;;;;;4943612;28;20085;-76
2024/02/17 11:33:31;;;;;;;0.20;0.20;;;18.90;99.90;;;;;;4975841;28;20050;-76
2024/02/17 11:36:03;;;;;;;0.10;0.00;;;19.00;99.90;;;;;;4981577;28;20038;-76
2024/02/17 11:38:30;;;;;;;5.47;2.17;;;18.70;99.90;;;;;;4958550;28;20080;-76
2024/02/17 11:41:00;;;;;;;2.10;0.70;;;18.00;99.90;;;;;;4968727;28;20112;-75
2024/02/17 11:43:28;;;;;;;0.50;0.20;;;17.10;99.90;;;;;;4969647;28;20124;-76
2024/02/17 11:45:55;;;;;;;0.57;0.10;;;16.10;99.90;;;;;;4968539;28;20093;-76
2024/02/17 11:48:21;;;;;;;0.50;0.17;;;15.20;99.90;;;;;;4952818;28;20046;-75
2024/02/17 11:50:47;;;;;;;0.70;0.10;;;14.70;99.90;;;;;;4964946;28;20050;-74
2024/02/17 11:53:13;;;;;;;0.43;0.10;;;14.40;99.90;;;;;;4960947;28;20035;-75
2024/02/17 11:55:40;;;;;;;1.45;0.10;;;14.80;99.90;;;;;;4962820;28;20589;-74
2024/02/17 11:58:09;;;;;;;0.00;0.00;;;15.40;99.90;;;;;;4971843;28;20406;-77
2024/02/17 12:00:56;;;;;;;0.15;0.10;;;15.80;99.90;;;;;;4963649;28;20053;-76
2024/02/17 12:03:26;;;;;;;0.35;0.10;;;16.20;99.90;;;;;;4965448;28;20116;-77
2024/02/17 12:05:52;;;;;;;0.60;0.20;;;15.90;99.90;;;;;;4969566;28;20121;-76
2024/02/17 12:08:18;;;;;;;0.10;0.00;;;15.20;99.90;;;;;;4942320;28;20137;-76
2024/02/17 12:10:45;;;;;;;1.45;0.50;;;14.50;99.90;;;;;;4965642;28;20042;-77
2024/02/17 12:13:11;;;;;;;0.30;0.20;;;13.90;99.90;;;;;;4952618;28;20478;-76
2024/02/17 12:15:37;;;;;;;1.50;0.20;;;13.50;99.90;;;;;;4964037;28;20089;-77
2024/02/17 12:18:04;;;;;;;1.85;0.25;;;13.20;99.90;;;;;;4968275;28;20409;-76
2024/02/17 12:20:31;;;;;;;0.50;0.20;;;13.00;99.90;;;;;;4966247;28;20053;-76
2024/02/17 12:22:58;;;;;;;0.73;0.30;;;12.90;99.90;;;;;;4961105;28;20046;-76
2024/02/17 12:25:25;;;;;;;1.08;0.20;;;12.80;99.90;;;;;;4971570;28;20109;-76
2024/02/17 12:27:52;;;;;;;0.30;0.20;;;12.80;99.90;;;;;;4966352;28;20133;-75
2024/02/17 12:30:18;;;;;;;2.90;0.50;;;12.70;99.90;;;;;;4955947;28;20050;-75
2024/02/17 12:32:45;;;;;;;0.35;0.20;;;12.60;99.90;;;;;;4946811;28;20122;-75
2024/02/17 12:35:20;;;;;;;1.20;0.38;;;12.50;99.90;;;;;;4973670;28;20084;-76
2024/02/17 12:37:49;;;;;;;1.45;0.55;;;12.40;99.90;;;;;;4963350;28;20479;-76
2024/02/17 12:40:19;;;;;;;0.57;0.40;;;12.30;99.90;;;;;;4953831;28;20046;-75
2024/02/17 12:42:53;;;;;;;0.70;0.40;;;12.30;99.90;;;;;;4948957;28;20134;-75
2024/02/17 12:45:28;;;;;;;1.48;0.50;;;12.30;99.90;;;;;;4968711;28;20097;-76
2024/02/17 12:47:54;;;;;;;0.68;0.20;;;12.30;99.90;;;;;;4960939;28;20133;-74
2024/02/17 12:50:21;;;;;;;1.95;0.20;;;12.30;99.90;;;;;;4973189;28;20129;-76
2024/02/17 12:52:47;;;;;;;1.75;0.20;;;12.30;99.90;;;;;;4968083;28;20501;-75
2024/02/17 12:55:13;;;;;;;0.93;0.35;;;12.20;99.90;;;;;;4971881;28;20038;-75